DAL1441 KATL-KJAN
Flight info
| Callsign | DAL1441 |
|---|---|
| Flight time | 0h 59m |
| Altitude | 34000 |
| Route | POUNC2 STEIT MERDN |
| Aircraft | A320/M-VGDW/C |
Departure
| Time | 2026-05-08 03:06 |
|---|---|
| Airport | Hartsfield Jackson Atlanta International Airport (KATL) |
Arrival
| Time | 2026-05-08 04:06 |
|---|---|
| Airport | Jackson-Medgar Wiley Evers International Airport (KJAN) |
| Time | Latitude | Longitude | Altitude | Speed | Heading |
|---|---|---|---|---|---|
| 2026-05-08 02:55 | 33.64298 | -84.43526 | 1007 ft | 0 kts | 269° |
| 2026-05-08 02:58 | 33.64298 | -84.43509 | 1006 ft | 4 kts | 269° |
| 2026-05-08 02:59 | 33.64298 | -84.43474 | 1006 ft | 4 kts | 295° |
| 2026-05-08 02:59 | 33.64277 | -84.43452 | 1006 ft | 3 kts | 356° |
| 2026-05-08 02:59 | 33.64276 | -84.43452 | 1006 ft | 0 kts | 356° |
| 2026-05-08 03:00 | 33.64294 | -84.43453 | 1006 ft | 7 kts | 356° |
| 2026-05-08 03:01 | 33.64343 | -84.43457 | 1006 ft | 7 kts | 356° |
| 2026-05-08 03:01 | 33.64406 | -84.43458 | 1006 ft | 12 kts | 4° |
| 2026-05-08 03:01 | 33.64460 | -84.43375 | 1006 ft | 18 kts | 92° |
| 2026-05-08 03:01 | 33.64459 | -84.43218 | 1007 ft | 19 kts | 89° |
| 2026-05-08 03:02 | 33.64460 | -84.43059 | 1007 ft | 19 kts | 90° |
| 2026-05-08 03:02 | 33.64460 | -84.42896 | 1006 ft | 20 kts | 89° |
| 2026-05-08 03:02 | 33.64468 | -84.42725 | 1006 ft | 21 kts | 86° |
| 2026-05-08 03:02 | 33.64470 | -84.42542 | 1006 ft | 23 kts | 90° |
| 2026-05-08 03:03 | 33.64470 | -84.42347 | 1006 ft | 24 kts | 90° |
| 2026-05-08 03:03 | 33.64519 | -84.42158 | 1006 ft | 22 kts | 61° |
| 2026-05-08 03:03 | 33.64543 | -84.42036 | 1006 ft | 17 kts | 90° |
| 2026-05-08 03:03 | 33.64543 | -84.41812 | 1006 ft | 36 kts | 90° |
| 2026-05-08 03:04 | 33.64543 | -84.41492 | 1007 ft | 39 kts | 91° |
| 2026-05-08 03:04 | 33.64543 | -84.41167 | 1007 ft | 39 kts | 90° |
| 2026-05-08 03:04 | 33.64546 | -84.40843 | 1006 ft | 35 kts | 86° |
| 2026-05-08 03:04 | 33.64570 | -84.40620 | 1005 ft | 14 kts | 86° |
| 2026-05-08 03:05 | 33.64630 | -84.40568 | 1004 ft | 12 kts | 0° |
| 2026-05-08 03:05 | 33.64678 | -84.40591 | 1004 ft | 5 kts | 294° |
| 2026-05-08 03:05 | 33.64681 | -84.40658 | 1004 ft | 21 kts | 270° |
| 2026-05-08 03:05 | 33.64681 | -84.41145 | 1007 ft | 93 kts | 270° |
| 2026-05-08 03:06 | 33.64681 | -84.42174 | 1004 ft | 149 kts | 270° |
| 2026-05-08 03:06 | 33.64678 | -84.43536 | 1226 ft | 175 kts | 270° |
| 2026-05-08 03:06 | 33.64674 | -84.45069 | 1721 ft | 191 kts | 275° |
| 2026-05-08 03:06 | 33.64849 | -84.46695 | 2323 ft | 201 kts | 282° |
| 2026-05-08 03:07 | 33.65103 | -84.48364 | 3030 ft | 204 kts | 283° |
| 2026-05-08 03:07 | 33.65389 | -84.50111 | 3391 ft | 226 kts | 284° |
| 2026-05-08 03:07 | 33.65751 | -84.52044 | 3826 ft | 246 kts | 285° |
| 2026-05-08 03:07 | 33.66153 | -84.54070 | 4677 ft | 251 kts | 284° |
| 2026-05-08 03:08 | 33.66556 | -84.56114 | 5615 ft | 252 kts | 283° |
| 2026-05-08 03:08 | 33.66952 | -84.58162 | 6600 ft | 251 kts | 281° |
| 2026-05-08 03:08 | 33.67328 | -84.60199 | 7544 ft | 249 kts | 281° |
| 2026-05-08 03:08 | 33.67682 | -84.62226 | 8474 ft | 248 kts | 280° |
| 2026-05-08 03:09 | 33.68027 | -84.64256 | 9406 ft | 248 kts | 279° |
| 2026-05-08 03:09 | 33.68367 | -84.66285 | 10272 ft | 250 kts | 279° |
| 2026-05-08 03:09 | 33.68722 | -84.68424 | 10525 ft | 273 kts | 279° |
| 2026-05-08 03:09 | 33.69105 | -84.70725 | 10753 ft | 295 kts | 280° |
| 2026-05-08 03:10 | 33.69435 | -84.73194 | 11273 ft | 303 kts | 272° |
| 2026-05-08 03:10 | 33.69268 | -84.75725 | 11969 ft | 307 kts | 259° |
| 2026-05-08 03:10 | 33.68533 | -84.78153 | 12708 ft | 315 kts | 246° |
| 2026-05-08 03:10 | 33.67267 | -84.80382 | 13463 ft | 322 kts | 239° |
| 2026-05-08 03:11 | 33.65936 | -84.82513 | 14108 ft | 325 kts | 239° |
| 2026-05-08 03:11 | 33.64563 | -84.84718 | 14759 ft | 326 kts | 239° |
| 2026-05-08 03:11 | 33.63222 | -84.86877 | 15399 ft | 328 kts | 240° |
| 2026-05-08 03:11 | 33.61857 | -84.89078 | 16042 ft | 330 kts | 240° |
| 2026-05-08 03:12 | 33.60487 | -84.91286 | 16708 ft | 331 kts | 240° |
| 2026-05-08 03:12 | 33.59109 | -84.93509 | 17380 ft | 332 kts | 240° |
| 2026-05-08 03:12 | 33.57724 | -84.95740 | 18003 ft | 334 kts | 240° |
| 2026-05-08 03:12 | 33.56334 | -84.97979 | 18615 ft | 336 kts | 240° |
| 2026-05-08 03:13 | 33.54930 | -85.00242 | 19156 ft | 339 kts | 240° |
| 2026-05-08 03:13 | 33.53520 | -85.02512 | 19696 ft | 341 kts | 240° |
| 2026-05-08 03:13 | 33.52097 | -85.04796 | 20253 ft | 343 kts | 240° |
| 2026-05-08 03:13 | 33.50665 | -85.07093 | 20777 ft | 346 kts | 240° |
| 2026-05-08 03:14 | 33.49217 | -85.09414 | 21291 ft | 348 kts | 240° |
| 2026-05-08 03:14 | 33.47767 | -85.11744 | 21786 ft | 351 kts | 240° |
| 2026-05-08 03:14 | 33.46303 | -85.14096 | 22277 ft | 353 kts | 240° |
| 2026-05-08 03:14 | 33.44825 | -85.16468 | 22751 ft | 356 kts | 240° |
| 2026-05-08 03:15 | 33.43356 | -85.18822 | 23199 ft | 358 kts | 240° |
| 2026-05-08 03:15 | 33.42062 | -85.21344 | 23638 ft | 354 kts | 249° |
| 2026-05-08 03:15 | 33.41208 | -85.24088 | 24003 ft | 352 kts | 257° |
| 2026-05-08 03:15 | 33.40518 | -85.26913 | 24376 ft | 353 kts | 257° |
| 2026-05-08 03:16 | 33.39824 | -85.29736 | 24747 ft | 354 kts | 257° |
| 2026-05-08 03:16 | 33.39122 | -85.32573 | 25097 ft | 356 kts | 256° |
| 2026-05-08 03:16 | 33.38418 | -85.35411 | 25465 ft | 357 kts | 256° |
| 2026-05-08 03:16 | 33.37712 | -85.38263 | 25834 ft | 358 kts | 256° |
| 2026-05-08 03:17 | 33.37005 | -85.41125 | 26200 ft | 359 kts | 256° |
| 2026-05-08 03:17 | 33.36293 | -85.43997 | 26562 ft | 360 kts | 256° |
| 2026-05-08 03:17 | 33.35579 | -85.46878 | 26911 ft | 362 kts | 256° |
| 2026-05-08 03:17 | 33.34863 | -85.49769 | 27258 ft | 363 kts | 256° |
| 2026-05-08 03:18 | 33.34154 | -85.52629 | 27586 ft | 364 kts | 256° |
| 2026-05-08 03:18 | 33.33428 | -85.55545 | 27914 ft | 365 kts | 256° |
| 2026-05-08 03:18 | 33.32701 | -85.58456 | 28235 ft | 367 kts | 256° |
| 2026-05-08 03:18 | 33.31967 | -85.61383 | 28542 ft | 368 kts | 256° |
| 2026-05-08 03:19 | 33.31232 | -85.64316 | 28834 ft | 369 kts | 256° |
| 2026-05-08 03:19 | 33.30494 | -85.67257 | 29116 ft | 370 kts | 256° |
| 2026-05-08 03:19 | 33.29756 | -85.70203 | 29383 ft | 371 kts | 256° |
| 2026-05-08 03:19 | 33.29015 | -85.73163 | 29645 ft | 372 kts | 256° |
| 2026-05-08 03:20 | 33.28272 | -85.76133 | 29903 ft | 373 kts | 256° |
| 2026-05-08 03:20 | 33.27529 | -85.79096 | 30231 ft | 372 kts | 256° |
| 2026-05-08 03:20 | 33.26784 | -85.82050 | 30535 ft | 370 kts | 256° |
| 2026-05-08 03:20 | 33.26045 | -85.84990 | 30841 ft | 369 kts | 256° |
| 2026-05-08 03:21 | 33.25311 | -85.87917 | 31122 ft | 367 kts | 256° |
| 2026-05-08 03:21 | 33.24576 | -85.90832 | 31413 ft | 366 kts | 256° |
| 2026-05-08 03:21 | 33.23838 | -85.93736 | 31700 ft | 365 kts | 256° |
| 2026-05-08 03:21 | 33.23109 | -85.96593 | 31999 ft | 364 kts | 256° |
| 2026-05-08 03:22 | 33.22374 | -85.99479 | 32280 ft | 363 kts | 256° |
| 2026-05-08 03:22 | 33.21646 | -86.02355 | 32570 ft | 362 kts | 256° |
| 2026-05-08 03:22 | 33.20920 | -86.05230 | 32866 ft | 361 kts | 256° |
| 2026-05-08 03:22 | 33.20195 | -86.08098 | 33166 ft | 360 kts | 256° |
| 2026-05-08 03:23 | 33.19470 | -86.10953 | 33486 ft | 358 kts | 256° |
| 2026-05-08 03:23 | 33.18745 | -86.13793 | 33791 ft | 357 kts | 255° |
| 2026-05-08 03:23 | 33.18022 | -86.16622 | 34000 ft | 357 kts | 255° |
| 2026-05-08 03:24 | 33.16580 | -86.22279 | 34048 ft | 355 kts | 255° |
| 2026-05-08 03:24 | 33.15141 | -86.27915 | 34091 ft | 355 kts | 255° |
| 2026-05-08 03:25 | 33.13939 | -86.32599 | 34091 ft | 355 kts | 255° |
| 2026-05-08 03:25 | 33.12494 | -86.38228 | 34091 ft | 355 kts | 255° |
| 2026-05-08 03:26 | 33.10809 | -86.44766 | 34083 ft | 355 kts | 255° |
| 2026-05-08 03:26 | 33.09355 | -86.50386 | 34049 ft | 355 kts | 255° |
| 2026-05-08 03:27 | 33.08138 | -86.55093 | 34039 ft | 355 kts | 255° |
| 2026-05-08 03:27 | 33.06683 | -86.60716 | 34047 ft | 355 kts | 255° |
| 2026-05-08 03:28 | 33.05231 | -86.66311 | 34053 ft | 355 kts | 255° |
| 2026-05-08 03:28 | 33.03769 | -86.71946 | 34028 ft | 355 kts | 255° |
| 2026-05-08 03:29 | 33.02305 | -86.77575 | 34029 ft | 356 kts | 255° |
| 2026-05-08 03:29 | 33.00831 | -86.83194 | 34014 ft | 356 kts | 255° |
| 2026-05-08 03:30 | 32.98627 | -86.91645 | 34018 ft | 356 kts | 255° |
| 2026-05-08 03:31 | 32.95675 | -87.02851 | 34029 ft | 356 kts | 255° |
| 2026-05-08 03:32 | 32.93448 | -87.11292 | 34037 ft | 356 kts | 255° |
| 2026-05-08 03:32 | 32.91962 | -87.16927 | 34040 ft | 357 kts | 255° |
| 2026-05-08 03:33 | 32.90472 | -87.22556 | 34029 ft | 357 kts | 255° |
| 2026-05-08 03:33 | 32.88975 | -87.28188 | 34042 ft | 357 kts | 255° |
| 2026-05-08 03:34 | 32.85943 | -87.39555 | 34003 ft | 357 kts | 255° |
| 2026-05-08 03:35 | 32.84442 | -87.45198 | 34028 ft | 358 kts | 255° |
| 2026-05-08 03:35 | 32.82932 | -87.50849 | 34034 ft | 358 kts | 255° |
| 2026-05-08 03:36 | 32.81421 | -87.56490 | 34044 ft | 358 kts | 255° |
| 2026-05-08 03:36 | 32.79902 | -87.62131 | 34042 ft | 358 kts | 255° |
| 2026-05-08 03:37 | 32.78393 | -87.67735 | 34044 ft | 358 kts | 255° |
| 2026-05-08 03:37 | 32.76870 | -87.73382 | 34065 ft | 358 kts | 255° |
| 2026-05-08 03:38 | 32.75342 | -87.79019 | 34074 ft | 358 kts | 254° |
| 2026-05-08 03:38 | 32.73819 | -87.84657 | 34084 ft | 359 kts | 254° |
| 2026-05-08 03:39 | 32.71942 | -87.90161 | 34096 ft | 361 kts | 250° |
| 2026-05-08 03:39 | 32.69903 | -87.95611 | 34104 ft | 361 kts | 250° |
| 2026-05-08 03:40 | 32.67877 | -88.01025 | 34111 ft | 361 kts | 250° |
| 2026-05-08 03:40 | 32.65840 | -88.06473 | 34114 ft | 361 kts | 250° |
| 2026-05-08 03:41 | 32.63796 | -88.11915 | 34113 ft | 361 kts | 249° |
| 2026-05-08 03:41 | 32.61753 | -88.17358 | 34071 ft | 361 kts | 249° |
| 2026-05-08 03:42 | 32.59709 | -88.22796 | 34051 ft | 361 kts | 249° |
| 2026-05-08 03:42 | 32.57659 | -88.28239 | 34060 ft | 362 kts | 249° |
| 2026-05-08 03:43 | 32.55605 | -88.33680 | 34042 ft | 361 kts | 249° |
| 2026-05-08 03:43 | 32.54581 | -88.36387 | 33373 ft | 359 kts | 249° |
| 2026-05-08 03:43 | 32.53555 | -88.39100 | 32425 ft | 363 kts | 249° |
| 2026-05-08 03:43 | 32.52517 | -88.41847 | 31442 ft | 368 kts | 249° |
| 2026-05-08 03:44 | 32.51463 | -88.44644 | 30440 ft | 374 kts | 249° |
| 2026-05-08 03:44 | 32.50404 | -88.47447 | 29330 ft | 380 kts | 249° |
| 2026-05-08 03:44 | 32.49321 | -88.50295 | 28452 ft | 379 kts | 248° |
| 2026-05-08 03:44 | 32.48229 | -88.53160 | 27461 ft | 384 kts | 248° |
| 2026-05-08 03:45 | 32.47126 | -88.56057 | 26768 ft | 386 kts | 248° |
| 2026-05-08 03:45 | 32.46022 | -88.58956 | 26091 ft | 385 kts | 248° |
| 2026-05-08 03:45 | 32.44924 | -88.61839 | 25430 ft | 383 kts | 248° |
| 2026-05-08 03:45 | 32.43832 | -88.64706 | 24777 ft | 381 kts | 248° |
| 2026-05-08 03:46 | 32.42730 | -88.67606 | 24162 ft | 393 kts | 248° |
| 2026-05-08 03:46 | 32.41602 | -88.70583 | 23543 ft | 397 kts | 248° |
| 2026-05-08 03:46 | 32.40467 | -88.73561 | 22825 ft | 396 kts | 248° |
| 2026-05-08 03:46 | 32.39332 | -88.76520 | 22143 ft | 393 kts | 248° |
| 2026-05-08 03:47 | 32.38290 | -88.79484 | 21445 ft | 387 kts | 254° |
| 2026-05-08 03:47 | 32.37739 | -88.82565 | 20781 ft | 382 kts | 264° |
| 2026-05-08 03:47 | 32.37581 | -88.85648 | 20136 ft | 379 kts | 266° |
| 2026-05-08 03:47 | 32.37439 | -88.88754 | 19498 ft | 376 kts | 266° |
| 2026-05-08 03:48 | 32.37295 | -88.91832 | 18873 ft | 373 kts | 266° |
| 2026-05-08 03:48 | 32.37147 | -88.94893 | 18250 ft | 371 kts | 266° |
| 2026-05-08 03:48 | 32.36998 | -88.97925 | 17546 ft | 368 kts | 266° |
| 2026-05-08 03:48 | 32.36851 | -89.00935 | 16858 ft | 365 kts | 266° |
| 2026-05-08 03:49 | 32.36700 | -89.03926 | 16186 ft | 363 kts | 266° |
| 2026-05-08 03:49 | 32.36550 | -89.06895 | 15527 ft | 361 kts | 266° |
| 2026-05-08 03:49 | 32.36400 | -89.09853 | 14879 ft | 359 kts | 267° |
| 2026-05-08 03:49 | 32.36250 | -89.12793 | 14246 ft | 357 kts | 267° |
| 2026-05-08 03:50 | 32.36100 | -89.15711 | 13635 ft | 355 kts | 267° |
| 2026-05-08 03:50 | 32.35953 | -89.18609 | 12993 ft | 351 kts | 267° |
| 2026-05-08 03:50 | 32.35809 | -89.21476 | 12365 ft | 347 kts | 267° |
| 2026-05-08 03:50 | 32.35665 | -89.24315 | 11743 ft | 344 kts | 267° |
| 2026-05-08 03:51 | 32.35521 | -89.27131 | 11234 ft | 341 kts | 267° |
| 2026-05-08 03:51 | 32.35378 | -89.29872 | 10986 ft | 338 kts | 267° |
| 2026-05-08 03:51 | 32.35231 | -89.32684 | 10955 ft | 338 kts | 267° |
| 2026-05-08 03:51 | 32.35085 | -89.35427 | 10963 ft | 339 kts | 267° |
| 2026-05-08 03:52 | 32.34939 | -89.38209 | 10962 ft | 339 kts | 267° |
| 2026-05-08 03:52 | 32.34795 | -89.40990 | 10966 ft | 339 kts | 267° |
| 2026-05-08 03:52 | 32.34653 | -89.43776 | 10962 ft | 338 kts | 267° |
| 2026-05-08 03:52 | 32.34514 | -89.46468 | 10954 ft | 318 kts | 267° |
| 2026-05-08 03:53 | 32.34376 | -89.49001 | 10963 ft | 299 kts | 267° |
| 2026-05-08 03:53 | 32.34245 | -89.51381 | 10963 ft | 281 kts | 268° |
| 2026-05-08 03:53 | 32.34458 | -89.53595 | 10910 ft | 267 kts | 289° |
| 2026-05-08 03:53 | 32.35296 | -89.55516 | 10684 ft | 260 kts | 297° |
| 2026-05-08 03:54 | 32.36221 | -89.57326 | 10157 ft | 256 kts | 298° |
| 2026-05-08 03:54 | 32.37148 | -89.59116 | 9495 ft | 254 kts | 298° |
| 2026-05-08 03:54 | 32.38062 | -89.60898 | 8799 ft | 253 kts | 297° |
| 2026-05-08 03:54 | 32.38895 | -89.62724 | 8119 ft | 251 kts | 294° |
| 2026-05-08 03:55 | 32.39675 | -89.64576 | 7616 ft | 251 kts | 294° |
| 2026-05-08 03:55 | 32.40441 | -89.66427 | 7196 ft | 250 kts | 294° |
| 2026-05-08 03:55 | 32.41204 | -89.68277 | 6789 ft | 250 kts | 294° |
| 2026-05-08 03:55 | 32.41952 | -89.70100 | 6405 ft | 249 kts | 294° |
| 2026-05-08 03:56 | 32.42708 | -89.71947 | 5972 ft | 249 kts | 294° |
| 2026-05-08 03:56 | 32.43456 | -89.73802 | 5532 ft | 250 kts | 294° |
| 2026-05-08 03:56 | 32.44194 | -89.75664 | 5147 ft | 248 kts | 294° |
| 2026-05-08 03:56 | 32.44905 | -89.77465 | 5026 ft | 235 kts | 294° |
| 2026-05-08 03:57 | 32.45588 | -89.79174 | 4900 ft | 224 kts | 295° |
| 2026-05-08 03:57 | 32.46269 | -89.80779 | 4766 ft | 214 kts | 296° |
| 2026-05-08 03:57 | 32.46936 | -89.82338 | 4485 ft | 212 kts | 296° |
| 2026-05-08 03:57 | 32.47602 | -89.83901 | 4139 ft | 213 kts | 296° |
| 2026-05-08 03:58 | 32.48267 | -89.85470 | 3947 ft | 214 kts | 296° |
| 2026-05-08 03:58 | 32.48939 | -89.87059 | 3947 ft | 217 kts | 296° |
| 2026-05-08 03:58 | 32.49615 | -89.88660 | 3942 ft | 217 kts | 295° |
| 2026-05-08 03:58 | 32.49994 | -89.90355 | 3673 ft | 215 kts | 273° |
| 2026-05-08 03:59 | 32.50000 | -89.92136 | 3313 ft | 217 kts | 269° |
| 2026-05-08 03:59 | 32.49954 | -89.93935 | 2962 ft | 220 kts | 268° |
| 2026-05-08 03:59 | 32.49899 | -89.95749 | 2616 ft | 221 kts | 268° |
| 2026-05-08 03:59 | 32.49836 | -89.97576 | 2287 ft | 222 kts | 268° |
| 2026-05-08 04:00 | 32.49769 | -89.99375 | 2145 ft | 214 kts | 268° |
| 2026-05-08 04:00 | 32.49701 | -90.01066 | 2213 ft | 198 kts | 268° |
| 2026-05-08 04:00 | 32.49633 | -90.02670 | 2210 ft | 191 kts | 268° |
| 2026-05-08 04:00 | 32.49569 | -90.04235 | 2195 ft | 187 kts | 268° |
| 2026-05-08 04:01 | 32.49507 | -90.05760 | 2207 ft | 184 kts | 268° |
| 2026-05-08 04:01 | 32.49446 | -90.07274 | 2209 ft | 183 kts | 268° |
| 2026-05-08 04:01 | 32.49348 | -90.08750 | 2206 ft | 183 kts | 256° |
| 2026-05-08 04:01 | 32.48668 | -90.09987 | 2211 ft | 182 kts | 218° |
| 2026-05-08 04:02 | 32.47546 | -90.10712 | 2211 ft | 182 kts | 201° |
| 2026-05-08 04:02 | 32.46363 | -90.11245 | 2208 ft | 182 kts | 199° |
| 2026-05-08 04:02 | 32.45217 | -90.11729 | 2198 ft | 169 kts | 198° |
| 2026-05-08 04:02 | 32.44146 | -90.12178 | 2224 ft | 159 kts | 198° |
| 2026-05-08 04:03 | 32.43087 | -90.12463 | 2217 ft | 154 kts | 178° |
| 2026-05-08 04:03 | 32.41088 | -90.11719 | 2043 ft | 150 kts | 155° |
| 2026-05-08 04:03 | 32.40117 | -90.11254 | 1862 ft | 150 kts | 155° |
| 2026-05-08 04:04 | 32.39148 | -90.10790 | 1677 ft | 150 kts | 155° |
| 2026-05-08 04:04 | 32.38180 | -90.10328 | 1465 ft | 150 kts | 155° |
| 2026-05-08 04:04 | 32.37222 | -90.09871 | 1278 ft | 150 kts | 156° |
| 2026-05-08 04:04 | 32.36261 | -90.09410 | 1079 ft | 150 kts | 156° |
| 2026-05-08 04:05 | 32.35291 | -90.08945 | 911 ft | 152 kts | 157° |
| 2026-05-08 04:05 | 32.34321 | -90.08484 | 721 ft | 148 kts | 158° |
| 2026-05-08 04:05 | 32.33379 | -90.08032 | 513 ft | 146 kts | 159° |
| 2026-05-08 04:05 | 32.32446 | -90.07593 | 366 ft | 138 kts | 158° |
| 2026-05-08 04:06 | 32.31683 | -90.07232 | 362 ft | 83 kts | 159° |
| 2026-05-08 04:06 | 32.31444 | -90.07195 | 360 ft | 22 kts | 182° |
| 2026-05-08 04:06 | 32.31301 | -90.07220 | 358 ft | 21 kts | 189° |
| 2026-05-08 04:06 | 32.31165 | -90.07244 | 360 ft | 17 kts | 184° |
| 2026-05-08 04:07 | 32.31063 | -90.07281 | 359 ft | 13 kts | 248° |
| 2026-05-08 04:07 | 32.31108 | -90.07347 | 364 ft | 13 kts | 336° |
| 2026-05-08 04:07 | 32.31204 | -90.07419 | 359 ft | 17 kts | 277° |
| 2026-05-08 04:07 | 32.31156 | -90.07577 | 359 ft | 23 kts | 244° |
| 2026-05-08 04:08 | 32.31083 | -90.07649 | 360 ft | 15 kts | 175° |
| 2026-05-08 04:08 | 32.31019 | -90.07643 | 360 ft | 1 kts | 178° |
| 2026-05-08 04:08 | 32.31016 | -90.07643 | 356 ft | 0 kts | 178° |